Pebble Beach, CA (93953)

8:37 AM PDT on September 01, 2014 (GMT -0700)
Spyglass | Change Station
CLOSE
Current Station
Personal Weather Station
Location: Del Monte Forest, CA
Elevation: 207 ft
Nearby Weather Stations

Elev 207 ft 36.59 °N, 121.95 °W | Updated 3 seconds ago

Overcast
Overcast
60.4 °F
Feels Like 60.4 °F
N
0.0
Wind Variable Wind from SW
Gusts 0.0 mph

Today
High -- | Low -- °F
--% Chance of Precip.
Yesterday
High -- | Low -- °F
Precip. -- in
6:39 AM 7:35 PM
Waxing Crescent, 41% visible
Pressure 29.91 in
Visibility 7.0 miles
Clouds Overcast 700 ft
Dew Point 58 °F
Humidity 91%
Rainfall 0.00 in
Snow Depth Not available.
UV 0 out of 12
Pollen 8.40 out of 12
Air Quality Not available.
Flu Activity Not available.
METAR KMRY 011454Z 27003KT 7SM OVC007 16/14 A2987 RMK AO2 SLP126 T01610139 51005

More Conditions Fewer Conditions

Pressure 29.91 in
Visibility 7.0 miles
Clouds Overcast 700 ft
Dew Point 58 °F
Humidity 91%
Rainfall 0.00 in
Snow Depth Not available.
UV 0 out of 12
Pollen 8.40 out of 12
Air Quality Not available.
Flu Activity Not available.
METAR KMRY 011454Z 27003KT 7SM OVC007 16/14 A2987 RMK AO2 SLP126 T01610139 51005

More Conditions Fewer Conditions

10-Day Weather Forecast

Almanac

Astronomy

Sep. 01, 2014 Rise Set
Actual Time 6:39 AM PDT 7:35 PM PDT
Civil Twilight 6:12 AM PDT 8:02 PM PDT
Nautical Twilight 5:41 AM PDT 8:33 PM PDT
Astronomical Twilight 5:08 AM PDT 9:05 PM PDT
Moon 1:19 PM PDT 11:52 PM PDT
Length of Visible Light 13h 49m
Length of Day
12h 56m
Tomorrow will be 2m 14s shorter.
Waxing Crescent, 41% of the Moon is Illuminated
Today
Waxing Crescent
Sep 2
First Quarter
Sep 8
Full
Sep 15
Last Quarter
Sep 24
New

Today's Extremes

State Highs State Lows

Community

WunderPhotos

Upload Photos

1,749,276 photos uploaded!

Nearby

Snow Depth

Station Depth Elevation
Leavitt Lake 1 in 9400 ft
Sonora Pass 0 in 8800 ft
Blue Lakes 0 in 8000 ft
Leavitt Meadows 1 in 7200 ft
Forestdale Creek 0 in 8029 ft

Earthquake Activity

City Distance Mag. Time & Date
Green Valley, California 115 miles 2.5 6:37 AM PDT
2014-08-31
Napa, California 116 miles 3.2 1:56 AM PDT
2014-08-31
Gonzales, California 39 miles 2.7 9:48 PM PDT
2014-08-30
Ridgemark, California 35 miles 3.4 4:32 PM PDT
2014-08-29
Minimum magnitude displayed is 2.5.

Coastal Water Temperatures

Place Temperature
Monterey, CA 66.0 °F
Port San Luis, CA 61.0 °F

Nearby Weather Stations